createdAt,value
2019-01-08T00:02:26.669Z,7.65
2019-01-08T00:05:48.188Z,7.62
2019-01-08T00:09:11.203Z,7.57
2019-01-08T00:12:30.007Z,7.54
2019-01-08T00:15:38.028Z,7.55
2019-01-08T00:18:45.828Z,7.50
2019-01-08T00:21:50.998Z,7.38
2019-01-08T00:25:17.691Z,7.32
2019-01-08T00:28:32.991Z,7.18
2019-01-08T00:31:39.258Z,7.10
2019-01-08T00:34:50.953Z,7.09
2019-01-08T00:38:23.021Z,7.06
2019-01-08T00:41:33.113Z,7.08
2019-01-08T00:44:44.048Z,7.13
2019-01-08T00:48:09.950Z,7.05
2019-01-08T00:51:32.960Z,7.01
2019-01-08T00:54:47.066Z,6.98
2019-01-08T00:58:38.577Z,6.93
2019-01-08T01:02:00.339Z,6.90
2019-01-08T01:05:35.984Z,6.95
2019-01-08T01:08:50.259Z,7.04
2019-01-08T01:12:01.621Z,6.96
2019-01-08T01:15:15.849Z,6.95
2019-01-08T01:18:20.532Z,6.95
2019-01-08T01:21:28.828Z,6.97
2019-01-08T01:24:43.199Z,7.13
2019-01-08T01:27:56.844Z,7.05
2019-01-08T01:31:08.092Z,7.09
2019-01-08T01:34:18.894Z,7.09
2019-01-08T01:45:36.691Z,7.08
2019-01-08T01:48:44.888Z,7.13
2019-01-08T01:51:53.010Z,7.14
2019-01-08T01:55:02.039Z,7.09
2019-01-08T01:58:12.785Z,7.19
2019-01-08T02:01:20.384Z,7.11
2019-01-08T02:04:31.848Z,7.02
2019-01-08T02:07:46.970Z,6.93
2019-01-08T02:14:36.690Z,6.65
2019-01-08T02:22:07.442Z,6.62
2019-01-08T02:25:15.348Z,6.66
2019-01-08T02:28:20.273Z,6.66
2019-01-08T02:31:31.162Z,6.70
2019-01-08T02:46:17.573Z,6.78
2019-01-08T02:49:24.207Z,6.85
2019-01-08T02:52:28.388Z,6.85
2019-01-08T02:55:50.217Z,6.76
2019-01-08T02:58:58.039Z,6.67
2019-01-08T03:02:05.930Z,6.65
2019-01-08T03:05:10.650Z,6.60
2019-01-08T03:08:14.873Z,6.61
2019-01-08T03:11:41.175Z,6.62
2019-01-08T03:14:50.280Z,6.56
2019-01-08T03:17:57.572Z,6.51
2019-01-08T03:21:04.333Z,6.48
2019-01-08T03:24:12.055Z,6.45
2019-01-08T03:27:18.820Z,6.41
2019-01-08T03:30:45.424Z,6.44
2019-01-08T03:33:58.878Z,6.49
2019-01-08T03:40:33.845Z,6.56
2019-01-08T03:47:52.317Z,6.57
2019-01-08T03:50:57.076Z,6.58
2019-01-08T03:54:05.087Z,6.59
2019-01-08T03:57:17.363Z,6.56
2019-01-08T04:00:28.949Z,6.63
2019-01-08T04:03:38.705Z,6.64
2019-01-08T04:06:44.589Z,6.66
2019-01-08T04:09:52.193Z,6.66
2019-01-08T04:13:07.632Z,6.77
2019-01-08T04:16:53.737Z,6.77
2019-01-08T04:20:18.781Z,6.79
2019-01-08T04:23:41.395Z,6.82
2019-01-08T04:26:48.984Z,6.79
2019-01-08T04:29:56.361Z,6.74
2019-01-08T04:33:07.176Z,6.75
2019-01-08T04:36:24.109Z,6.81
2019-01-08T04:39:34.335Z,6.78
2019-01-08T04:42:38.483Z,6.80
2019-01-08T04:45:43.622Z,6.90
2019-01-08T04:48:47.937Z,6.93
2019-01-08T04:51:57.758Z,6.91
2019-01-08T04:55:03.520Z,6.89
2019-01-08T04:58:11.147Z,6.83
2019-01-08T05:01:16.804Z,6.82
2019-01-08T05:04:23.238Z,6.86
2019-01-08T05:07:30.635Z,6.89
2019-01-08T05:10:36.346Z,6.89
2019-01-08T05:13:47.260Z,6.92
2019-01-08T05:16:55.006Z,6.95
2019-01-08T05:19:59.996Z,6.98
2019-01-08T05:23:04.710Z,7.04
2019-01-08T05:26:15.615Z,7.07
2019-01-08T05:32:50.905Z,7.01
2019-01-08T05:36:01.271Z,6.97
2019-01-08T05:39:12.419Z,6.99
2019-01-08T05:42:26.708Z,7.01
2019-01-08T05:45:49.456Z,7.00
2019-01-08T05:48:55.826Z,6.99
2019-01-08T05:52:06.594Z,7.04
2019-01-08T05:55:18.250Z,6.99
2019-01-08T05:58:25.277Z,6.96
2019-01-08T06:01:48.646Z,6.94
2019-01-08T06:04:57.655Z,6.97
2019-01-08T06:08:13.570Z,6.92
2019-01-08T06:11:24.813Z,6.92
2019-01-08T06:14:34.087Z,6.92
2019-01-08T06:17:41.237Z,6.94
2019-01-08T06:20:55.040Z,6.87
2019-01-08T06:23:59.312Z,6.86
2019-01-08T06:27:03.626Z,6.87
2019-01-08T06:30:26.889Z,6.92
2019-01-08T06:33:32.634Z,6.91
2019-01-08T06:36:58.268Z,6.97
2019-01-08T06:40:06.785Z,6.93
2019-01-08T06:43:14.522Z,6.98
2019-01-08T06:46:21.925Z,6.92
2019-01-08T06:49:41.357Z,6.88
2019-01-08T06:52:48.367Z,6.90
2019-01-08T06:56:16.214Z,6.84
2019-01-08T06:59:20.533Z,6.88
2019-01-08T07:02:24.913Z,6.90
2019-01-08T07:05:37.254Z,6.96
2019-01-08T07:08:46.953Z,6.97
2019-01-08T07:12:39.393Z,6.97
2019-01-08T07:15:46.751Z,7.03
2019-01-08T07:19:00.904Z,7.11
2019-01-08T07:22:23.880Z,7.02
2019-01-08T07:25:28.697Z,7.00
2019-01-08T07:28:43.807Z,7.01
2019-01-08T07:31:58.620Z,7.02
2019-01-08T07:35:27.114Z,6.94
2019-01-08T07:38:41.206Z,7.01
2019-01-08T07:41:54.542Z,6.94
2019-01-08T07:45:02.144Z,6.87
2019-01-08T07:48:10.145Z,6.82
2019-01-08T07:51:21.228Z,6.80
2019-01-08T07:54:36.063Z,6.93
2019-01-08T07:57:55.881Z,6.87
2019-01-08T08:01:09.048Z,6.93
2019-01-08T08:04:16.507Z,6.90
2019-01-08T08:10:48.565Z,6.90
2019-01-08T08:14:14.254Z,6.80
2019-01-08T08:17:21.595Z,6.80
2019-01-08T08:20:44.054Z,6.83
2019-01-08T08:23:49.240Z,6.75
2019-01-08T08:27:05.046Z,6.81
2019-01-08T08:30:14.923Z,6.83
2019-01-08T08:33:28.138Z,6.78
2019-01-08T08:36:37.020Z,6.75
2019-01-08T08:39:47.766Z,6.70
2019-01-08T08:42:53.706Z,6.74
2019-01-08T08:45:58.114Z,6.57
2019-01-08T08:49:05.508Z,6.55
2019-01-08T08:52:10.238Z,6.55
2019-01-08T08:55:18.346Z,6.52
2019-01-08T08:58:22.675Z,6.65
2019-01-08T09:01:27.079Z,6.53
2019-01-08T09:04:36.110Z,6.60
2019-01-08T09:07:46.791Z,6.52
2019-01-08T09:10:54.376Z,6.41
2019-01-08T09:14:02.975Z,6.37
2019-01-08T09:17:09.421Z,6.36
2019-01-08T09:20:20.389Z,6.28
2019-01-08T09:23:24.900Z,6.41
2019-01-08T09:26:29.375Z,6.18
2019-01-08T09:29:33.507Z,6.19
2019-01-08T09:32:37.485Z,6.23
2019-01-08T09:35:43.551Z,6.24
2019-01-08T09:38:53.773Z,6.31
2019-01-08T09:41:59.953Z,6.19
2019-01-08T09:45:05.957Z,6.28
2019-01-08T09:48:10.221Z,6.24
2019-01-08T09:51:14.605Z,6.19
2019-01-08T09:54:18.786Z,6.34
2019-01-08T09:57:23.079Z,6.22
2019-01-08T10:00:27.322Z,6.22
2019-01-08T10:03:31.663Z,6.19
2019-01-08T10:06:39.467Z,6.23
2019-01-08T10:09:43.717Z,6.31
2019-01-08T10:12:48.078Z,6.48
2019-01-08T10:15:52.076Z,6.47
2019-01-08T10:18:56.553Z,6.45
2019-01-08T10:22:07.807Z,6.62
2019-01-08T10:25:12.067Z,6.56
2019-01-08T10:28:16.071Z,6.48
2019-01-08T10:31:21.242Z,6.50
2019-01-08T10:34:25.480Z,6.56
2019-01-08T10:37:30.120Z,6.39
2019-01-08T10:40:41.194Z,6.49
2019-01-08T10:43:48.470Z,6.43
2019-01-08T10:46:56.310Z,6.44
2019-01-08T10:50:00.671Z,6.44
2019-01-08T10:53:08.693Z,6.53
2019-01-08T10:56:22.676Z,6.56
2019-01-08T10:59:26.964Z,6.42
2019-01-08T11:02:34.972Z,6.53
2019-01-08T11:05:39.464Z,6.38
2019-01-08T11:08:43.738Z,6.25
2019-01-08T11:11:48.137Z,6.32
2019-01-08T11:14:52.633Z,6.22
2019-01-08T11:18:06.711Z,6.25
2019-01-08T11:21:15.445Z,6.39
2019-01-08T11:24:23.306Z,6.49
2019-01-08T11:27:31.973Z,6.39
2019-01-08T11:30:39.694Z,6.17
2019-01-08T11:33:43.747Z,6.28
2019-01-08T11:36:48.193Z,6.19
2019-01-08T11:39:52.307Z,6.24
2019-01-08T11:42:56.727Z,6.13
2019-01-08T11:46:04.559Z,6.12
2019-01-08T11:49:12.110Z,5.99
2019-01-08T11:52:16.912Z,5.91
2019-01-08T11:55:23.021Z,5.96
2019-01-08T11:58:43.271Z,5.74
2019-01-08T12:01:57.513Z,5.64
2019-01-08T12:05:05.208Z,5.61
2019-01-08T12:08:29.839Z,5.57
2019-01-08T12:12:41.523Z,5.63
2019-01-08T12:15:50.592Z,5.93
2019-01-08T12:18:58.122Z,5.95
2019-01-08T12:22:02.680Z,5.85
2019-01-08T12:25:09.807Z,5.76
2019-01-08T12:28:15.575Z,6.01
2019-01-08T12:31:19.538Z,6.14
2019-01-08T12:34:29.817Z,6.07
2019-01-08T12:37:33.977Z,6.11
2019-01-08T12:40:37.900Z,5.99
2019-01-08T12:43:42.177Z,5.95
2019-01-08T12:46:46.294Z,6.16
2019-01-08T12:49:57.094Z,6.30
2019-01-08T12:53:08.316Z,6.45
2019-01-08T12:56:24.925Z,6.46
2019-01-08T12:59:35.560Z,6.53
2019-01-08T13:02:39.815Z,6.46
2019-01-08T13:05:43.863Z,6.42
2019-01-08T13:08:50.198Z,6.33
2019-01-08T13:11:54.619Z,6.31
2019-01-08T13:15:01.660Z,6.42
2019-01-08T13:18:06.388Z,6.45
2019-01-08T13:21:17.227Z,6.33
2019-01-08T13:24:28.799Z,6.13
2019-01-08T13:27:33.340Z,6.23
2019-01-08T13:30:37.991Z,6.21
2019-01-08T13:33:45.977Z,6.12
2019-01-08T13:36:53.358Z,5.97
2019-01-08T13:39:57.211Z,5.96
2019-01-08T13:43:01.728Z,5.81
2019-01-08T13:46:09.014Z,5.98
2019-01-08T13:49:14.742Z,5.89
2019-01-08T13:52:20.359Z,5.92
2019-01-08T13:55:24.673Z,5.77
2019-01-08T13:58:34.726Z,5.94
2019-01-08T14:01:40.978Z,5.92
2019-01-08T14:04:48.088Z,5.89
2019-01-08T14:07:52.666Z,5.82
2019-01-08T14:11:00.130Z,5.77
2019-01-08T14:14:05.035Z,5.71
2019-01-08T14:17:10.962Z,5.80
2019-01-08T14:20:18.822Z,5.72
2019-01-08T14:23:36.128Z,5.84
2019-01-08T14:26:44.242Z,5.65
2019-01-08T14:29:48.346Z,5.63
2019-01-08T14:32:53.632Z,5.88
2019-01-08T14:36:00.820Z,5.53
2019-01-08T14:39:06.694Z,5.61
2019-01-08T14:42:29.652Z,5.44
2019-01-08T14:45:31.036Z,5.39
2019-01-08T14:48:35.849Z,5.49
2019-01-08T14:51:42.780Z,5.32
2019-01-08T14:54:47.164Z,5.28
2019-01-08T14:57:57.589Z,5.16
2019-01-08T15:01:01.866Z,5.06
2019-01-08T15:04:06.148Z,4.99
2019-01-08T15:07:17.033Z,5.07
2019-01-08T15:10:24.909Z,5.05
2019-01-08T15:13:32.015Z,5.04
2019-01-08T15:16:41.141Z,5.04
2019-01-08T15:19:48.437Z,5.10
2019-01-08T15:22:52.867Z,5.05
2019-01-08T15:25:56.810Z,4.97
2019-01-08T15:29:00.938Z,4.97
2019-01-08T15:32:05.503Z,4.98
2019-01-08T15:35:09.987Z,4.98
2019-01-08T15:38:14.246Z,5.01
2019-01-08T15:41:18.632Z,5.18
2019-01-08T15:44:23.217Z,5.16
2019-01-08T15:47:27.581Z,5.18
2019-01-08T15:50:32.581Z,5.01
2019-01-08T15:53:40.157Z,4.90
2019-01-08T15:56:44.286Z,5.02
2019-01-08T15:59:53.674Z,4.90
2019-01-08T16:02:57.775Z,5.02
2019-01-08T16:06:01.948Z,4.89
2019-01-08T16:09:08.167Z,4.89
2019-01-08T16:12:12.155Z,4.90
2019-01-08T16:15:16.216Z,4.85
2019-01-08T16:18:20.423Z,5.16
2019-01-08T16:21:24.754Z,5.08
2019-01-08T16:24:28.992Z,4.91
2019-01-08T16:27:35.343Z,4.79
2019-01-08T16:30:39.536Z,4.95
2019-01-08T16:33:44.510Z,4.82
2019-01-08T16:36:50.470Z,4.71
2019-01-08T16:39:54.795Z,4.60
2019-01-08T16:42:58.684Z,4.52
2019-01-08T16:46:19.855Z,4.58
2019-01-08T16:49:26.265Z,4.55
2019-01-08T16:52:30.524Z,4.54
2019-01-08T16:55:34.934Z,4.62
2019-01-08T16:58:43.940Z,4.59
2019-01-08T17:01:48.160Z,4.52
2019-01-08T17:04:52.454Z,4.43
2019-01-08T17:08:00.078Z,4.46
2019-01-08T17:11:04.327Z,4.53
2019-01-08T17:14:08.515Z,4.53
2019-01-08T17:17:13.459Z,4.50
2019-01-08T17:20:17.581Z,4.62
2019-01-08T17:23:21.876Z,4.64
2019-01-08T17:26:26.509Z,4.52
2019-01-08T17:29:30.872Z,4.58
2019-01-08T17:32:35.451Z,4.77
2019-01-08T17:35:39.715Z,4.65
2019-01-08T17:38:43.800Z,4.67
2019-01-08T17:41:48.031Z,4.50
2019-01-08T17:44:53.445Z,4.56
2019-01-08T17:48:03.924Z,4.41
2019-01-08T17:51:11.053Z,4.39
2019-01-08T17:54:15.532Z,4.27
2019-01-08T17:57:19.466Z,4.14
2019-01-08T18:00:23.666Z,4.10
2019-01-08T18:03:27.871Z,4.16
2019-01-08T18:06:39.008Z,4.23
2019-01-08T18:09:43.927Z,4.31
2019-01-08T18:12:48.334Z,4.31
2019-01-08T18:15:56.116Z,4.37
2019-01-08T18:19:02.816Z,4.24
2019-01-08T18:22:07.223Z,4.27
2019-01-08T18:25:14.376Z,4.26
2019-01-08T18:28:22.154Z,4.08
2019-01-08T18:31:29.792Z,4.15
2019-01-08T18:34:35.094Z,4.02
2019-01-08T18:37:45.238Z,4.09
2019-01-08T18:40:52.590Z,4.05
2019-01-08T18:43:57.461Z,4.13
2019-01-08T18:47:02.074Z,3.98
2019-01-08T18:50:07.829Z,3.90
2019-01-08T18:53:12.235Z,3.87
2019-01-08T18:56:16.705Z,4.13
2019-01-08T18:59:24.103Z,4.04
2019-01-08T19:02:39.178Z,4.33
2019-01-08T19:05:46.436Z,4.29
2019-01-08T19:09:36.923Z,4.35
2019-01-08T19:12:45.552Z,4.18
2019-01-08T19:15:50.117Z,4.20
2019-01-08T19:18:57.375Z,4.29
2019-01-08T19:22:02.136Z,4.24
2019-01-08T19:25:09.812Z,4.25
2019-01-08T19:28:14.260Z,4.20
2019-01-08T19:31:28.792Z,4.22
2019-01-08T19:34:34.598Z,4.22
2019-01-08T19:37:41.745Z,4.39
2019-01-08T19:40:46.463Z,4.33
2019-01-08T19:43:53.089Z,4.41
2019-01-08T19:47:05.026Z,4.32
2019-01-08T19:50:09.666Z,4.37
2019-01-08T19:53:14.291Z,4.45
2019-01-08T19:56:18.736Z,4.32
2019-01-08T19:59:22.962Z,4.57
2019-01-08T20:02:27.169Z,4.50
2019-01-08T20:05:31.645Z,4.43
2019-01-08T20:08:37.707Z,4.30
2019-01-08T20:11:45.810Z,4.32
2019-01-08T20:14:52.065Z,4.46
2019-01-08T20:17:58.039Z,4.34
2019-01-08T20:21:03.711Z,4.27
2019-01-08T20:24:14.146Z,4.10
2019-01-08T20:27:22.577Z,4.21
2019-01-08T20:30:29.732Z,4.21
2019-01-08T20:33:36.178Z,4.35
2019-01-08T20:37:00.265Z,4.24
2019-01-08T20:40:13.326Z,4.25
2019-01-08T20:43:19.104Z,4.26
2019-01-08T20:46:25.366Z,4.12
2019-01-08T20:49:30.299Z,4.19
2019-01-08T20:52:37.003Z,4.36
2019-01-08T20:55:41.601Z,4.42
2019-01-08T21:02:37.303Z,4.41
2019-01-08T21:05:41.509Z,4.37
2019-01-08T21:08:46.012Z,4.45
2019-01-08T21:11:50.109Z,4.37
2019-01-08T21:14:55.315Z,4.37
2019-01-08T21:17:59.410Z,4.36
2019-01-08T21:21:05.028Z,4.52
2019-01-08T21:24:09.572Z,4.55
2019-01-08T21:27:14.159Z,4.48
2019-01-08T21:30:21.519Z,4.55
2019-01-08T21:33:25.766Z,4.39
2019-01-08T21:36:30.976Z,4.42
2019-01-08T21:39:35.345Z,4.60
2019-01-08T21:42:39.703Z,4.52
2019-01-08T21:45:43.985Z,4.66
2019-01-08T21:48:48.555Z,4.57
2019-01-08T21:51:58.920Z,4.48
2019-01-08T21:55:03.030Z,4.70
2019-01-08T21:58:07.700Z,4.71
2019-01-08T22:01:11.868Z,4.66
2019-01-08T22:04:16.352Z,4.71
2019-01-08T22:07:22.587Z,4.74
2019-01-08T22:10:27.145Z,4.53
2019-01-08T22:13:35.916Z,4.52
2019-01-08T22:16:40.380Z,4.45
2019-01-08T22:19:44.951Z,4.44
2019-01-08T22:22:52.747Z,4.49
2019-01-08T22:25:55.208Z,4.46
2019-01-08T22:28:59.697Z,4.55
2019-01-08T22:32:04.006Z,4.35
2019-01-08T22:35:08.397Z,4.24
2019-01-08T22:38:12.640Z,4.33
2019-01-08T22:41:17.446Z,4.42
2019-01-08T22:44:22.110Z,4.21
2019-01-08T22:47:26.299Z,4.34
2019-01-08T22:50:30.748Z,4.12
2019-01-08T22:53:35.778Z,4.19
2019-01-08T22:56:41.563Z,4.19
2019-01-08T22:59:49.154Z,4.16
2019-01-08T23:02:53.493Z,4.15
2019-01-08T23:05:57.926Z,4.40
2019-01-08T23:09:02.011Z,4.36
2019-01-08T23:12:06.758Z,4.26
2019-01-08T23:15:10.948Z,4.36
2019-01-08T23:18:15.526Z,4.25
2019-01-08T23:21:19.945Z,4.31
2019-01-08T23:24:27.505Z,4.22
2019-01-08T23:27:31.724Z,4.21
2019-01-08T23:30:35.783Z,4.13
2019-01-08T23:33:41.332Z,4.06
2019-01-08T23:36:45.415Z,4.00
2019-01-08T23:39:49.842Z,3.97
2019-01-08T23:42:53.915Z,3.86
2019-01-08T23:45:58.051Z,3.96
2019-01-08T23:49:07.792Z,4.03
2019-01-08T23:52:23.181Z,4.05
2019-01-08T23:55:30.561Z,3.99
2019-01-08T23:58:35.204Z,4.12
